createdAt,value
2023-05-21T00:00:41.650Z,16.75
2023-05-21T00:03:16.326Z,16.73
2023-05-21T00:05:47.307Z,16.71
2023-05-21T00:08:15.552Z,16.66
2023-05-21T00:10:43.623Z,16.64
2023-05-21T00:13:11.727Z,16.61
2023-05-21T00:15:40.033Z,16.56
2023-05-21T00:18:08.246Z,16.58
2023-05-21T00:20:37.243Z,16.60
2023-05-21T00:23:06.722Z,16.58
2023-05-21T00:25:35.277Z,16.56
2023-05-21T00:28:03.883Z,16.53
2023-05-21T00:30:31.991Z,16.48
2023-05-21T00:33:02.757Z,16.43
2023-05-21T00:35:31.377Z,16.36
2023-05-21T00:38:00.405Z,16.32
2023-05-21T00:40:29.925Z,16.26
2023-05-21T00:42:58.280Z,16.23
2023-05-21T00:45:26.387Z,16.22
2023-05-21T00:47:55.812Z,16.21
2023-05-21T00:50:24.357Z,16.21
2023-05-21T00:52:52.632Z,16.26
2023-05-21T00:55:20.958Z,16.31
2023-05-21T00:57:50.738Z,16.31
2023-05-21T01:00:18.965Z,16.30
2023-05-21T01:02:47.683Z,16.30
2023-05-21T01:05:16.378Z,16.27
2023-05-21T01:07:44.646Z,16.20
2023-05-21T01:10:13.417Z,16.15
2023-05-21T01:12:44.898Z,16.10
2023-05-21T01:15:15.173Z,16.07
2023-05-21T01:17:46.145Z,16.01
2023-05-21T01:20:18.318Z,15.99
2023-05-21T01:22:56.622Z,15.96
2023-05-21T01:25:25.124Z,15.93
2023-05-21T01:27:53.685Z,15.85
2023-05-21T01:30:23.534Z,15.76
2023-05-21T01:33:00.925Z,15.74
2023-05-21T01:35:33.338Z,15.77
2023-05-21T01:38:09.779Z,15.74
2023-05-21T01:40:43.284Z,15.67
2023-05-21T01:43:12.769Z,15.58
2023-05-21T01:45:43.365Z,15.53
2023-05-21T01:48:13.419Z,15.55
2023-05-21T01:50:42.992Z,15.57
2023-05-21T01:53:12.609Z,15.54
2023-05-21T01:55:42.239Z,15.50
2023-05-21T01:58:10.654Z,15.53
2023-05-21T02:00:40.116Z,15.52
2023-05-21T02:03:08.935Z,15.49
2023-05-21T02:05:37.561Z,15.50
2023-05-21T02:08:08.499Z,15.51
2023-05-21T02:10:38.419Z,15.52
2023-05-21T02:13:06.581Z,15.50
2023-05-21T02:15:35.589Z,15.46
2023-05-21T02:18:04.499Z,15.47
2023-05-21T02:20:33.177Z,15.47
2023-05-21T02:23:01.340Z,15.44
2023-05-21T02:25:29.543Z,15.46
2023-05-21T02:27:59.605Z,15.49
2023-05-21T02:30:28.075Z,15.51
2023-05-21T02:32:59.017Z,15.52
2023-05-21T02:35:27.280Z,15.54
2023-05-21T02:37:59.046Z,15.55
2023-05-21T02:40:27.208Z,15.57
2023-05-21T02:42:55.319Z,15.61
2023-05-21T02:45:24.968Z,15.63
2023-05-21T02:47:53.079Z,15.61
2023-05-21T02:50:22.859Z,15.64
2023-05-21T02:52:51.079Z,15.61
2023-05-21T02:55:19.207Z,15.61
2023-05-21T02:57:47.315Z,15.62
2023-05-21T03:00:16.453Z,15.59
2023-05-21T03:02:46.249Z,15.59
2023-05-21T03:05:14.400Z,15.57
2023-05-21T03:07:43.705Z,15.56
2023-05-21T03:10:12.237Z,15.56
2023-05-21T03:12:40.337Z,15.56
2023-05-21T03:15:09.343Z,15.56
2023-05-21T03:17:37.502Z,15.52
2023-05-21T03:20:09.038Z,15.51
2023-05-21T03:22:37.679Z,15.48
2023-05-21T03:25:06.224Z,15.48
2023-05-21T03:27:34.278Z,15.47
2023-05-21T03:30:02.383Z,15.48
2023-05-21T03:32:30.628Z,15.48
2023-05-21T03:34:58.707Z,15.50
2023-05-21T03:37:28.182Z,15.52
2023-05-21T03:39:56.257Z,15.55
2023-05-21T03:42:24.332Z,15.57
2023-05-21T03:44:52.349Z,15.57
2023-05-21T03:47:20.407Z,15.52
2023-05-21T03:49:48.552Z,15.52
2023-05-21T03:52:16.576Z,15.54
2023-05-21T03:54:46.087Z,15.55
2023-05-21T03:57:14.235Z,15.57
2023-05-21T03:59:42.280Z,15.57
2023-05-21T04:02:10.383Z,15.58
2023-05-21T04:04:38.597Z,15.60
2023-05-21T04:07:10.426Z,15.57
2023-05-21T04:09:38.468Z,15.57
2023-05-21T04:12:08.637Z,15.54
2023-05-21T04:14:37.876Z,15.50
2023-05-21T04:17:06.695Z,15.50
2023-05-21T04:19:34.920Z,15.49
2023-05-21T04:22:03.223Z,15.50
2023-05-21T04:24:31.292Z,15.53
2023-05-21T04:27:01.479Z,15.56
2023-05-21T04:29:31.402Z,15.61
2023-05-21T04:31:59.483Z,15.63
2023-05-21T04:34:27.562Z,15.64
2023-05-21T04:36:57.005Z,15.67
2023-05-21T04:39:25.026Z,15.67
2023-05-21T04:41:54.776Z,15.69
2023-05-21T04:44:22.898Z,15.66
2023-05-21T04:46:52.842Z,15.64
2023-05-21T04:49:22.349Z,15.60
2023-05-21T04:51:53.168Z,15.61
2023-05-21T04:54:21.207Z,15.66
2023-05-21T04:56:49.408Z,15.66
2023-05-21T04:59:18.739Z,15.67
2023-05-21T05:01:46.995Z,15.77
2023-05-21T05:04:16.473Z,15.86
2023-05-21T05:06:44.721Z,15.97
2023-05-21T05:09:13.008Z,16.04
2023-05-21T05:11:41.052Z,16.06
2023-05-21T05:14:09.307Z,16.04
2023-05-21T05:16:37.437Z,16.02
2023-05-21T05:19:05.628Z,16.06
2023-05-21T05:21:35.198Z,16.14
2023-05-21T05:24:03.349Z,16.21
2023-05-21T05:26:31.490Z,16.32
2023-05-21T05:28:59.571Z,16.45
2023-05-21T05:31:27.586Z,16.53
2023-05-21T05:33:55.724Z,16.64
2023-05-21T05:36:24.272Z,16.87
2023-05-21T05:38:53.758Z,17.16
2023-05-21T05:41:21.892Z,17.43
2023-05-21T05:43:49.911Z,17.60
2023-05-21T05:46:18.011Z,17.79
2023-05-21T05:48:46.217Z,18.00
2023-05-21T05:51:15.459Z,18.25
2023-05-21T05:53:43.581Z,18.53
2023-05-21T05:56:13.103Z,18.94
2023-05-21T05:58:41.230Z,19.39
2023-05-21T06:01:09.315Z,20.04
2023-05-21T06:03:37.413Z,20.58
2023-05-21T06:06:05.616Z,21.14
2023-05-21T06:08:37.303Z,21.72
2023-05-21T06:11:06.329Z,22.08
2023-05-21T06:13:35.787Z,22.18
2023-05-21T06:16:05.109Z,22.21
2023-05-21T06:18:33.231Z,22.36
2023-05-21T06:21:01.654Z,22.46
2023-05-21T06:23:29.744Z,22.94
2023-05-21T06:25:57.880Z,23.44
2023-05-21T06:28:25.964Z,23.81
2023-05-21T06:30:55.492Z,23.98
2023-05-21T06:33:23.733Z,24.08
2023-05-21T06:35:51.943Z,24.17
2023-05-21T06:38:20.136Z,24.41
2023-05-21T06:40:49.531Z,24.87
2023-05-21T06:43:17.634Z,25.49
2023-05-21T06:45:45.692Z,26.29
2023-05-21T06:48:16.042Z,27.15
2023-05-21T06:50:44.502Z,28.07
2023-05-21T06:53:14.014Z,28.91
2023-05-21T06:55:44.975Z,29.81
2023-05-21T06:58:13.267Z,30.59
2023-05-21T07:00:41.397Z,30.93
2023-05-21T07:03:09.594Z,31.48
2023-05-21T07:05:39.522Z,31.86
2023-05-21T07:08:08.585Z,32.27
2023-05-21T07:10:37.257Z,32.65
2023-05-21T07:13:05.392Z,33.15
2023-05-21T07:15:33.630Z,33.68
2023-05-21T07:18:01.729Z,34.00
2023-05-21T07:20:29.961Z,34.28
2023-05-21T07:22:59.527Z,34.64
2023-05-21T07:25:27.747Z,35.21
2023-05-21T07:27:56.019Z,35.87
2023-05-21T07:30:24.166Z,36.40
2023-05-21T07:32:52.371Z,36.70
2023-05-21T07:35:21.172Z,36.62
2023-05-21T07:37:49.358Z,36.91
2023-05-21T07:40:19.043Z,36.85
2023-05-21T07:42:47.166Z,36.79
2023-05-21T07:45:15.246Z,36.79
2023-05-21T07:47:43.837Z,36.24
2023-05-21T07:50:13.263Z,35.88
2023-05-21T07:52:41.536Z,35.94
2023-05-21T07:55:10.661Z,36.56
2023-05-21T07:57:40.195Z,36.98
2023-05-21T08:00:10.442Z,37.60
2023-05-21T08:02:38.809Z,37.94
2023-05-21T08:05:07.792Z,37.81
2023-05-21T08:07:36.585Z,37.95
2023-05-21T08:10:05.183Z,37.67
2023-05-21T08:12:33.278Z,37.25
2023-05-21T08:15:02.949Z,37.19
2023-05-21T08:17:31.282Z,37.46
2023-05-21T08:19:59.759Z,37.80
2023-05-21T08:22:27.912Z,37.88
2023-05-21T08:24:56.541Z,38.31
2023-05-21T08:27:24.690Z,38.90
2023-05-21T08:29:53.039Z,39.43
2023-05-21T08:32:22.801Z,39.32
2023-05-21T08:34:51.216Z,40.01
2023-05-21T08:37:19.542Z,40.45
2023-05-21T08:39:47.722Z,41.23
2023-05-21T08:42:36.508Z,41.83
2023-05-21T08:45:07.571Z,42.54
2023-05-21T08:47:38.183Z,43.11
2023-05-21T08:50:10.447Z,43.24
2023-05-21T08:52:38.867Z,44.13
2023-05-21T08:55:08.252Z,45.09
2023-05-21T08:57:36.618Z,45.51
2023-05-21T09:02:40.998Z,43.78
2023-05-21T09:05:10.875Z,42.35
2023-05-21T09:07:45.348Z,39.75
2023-05-21T09:10:15.158Z,37.72
2023-05-21T09:12:43.343Z,36.31
2023-05-21T09:15:12.103Z,35.44
2023-05-21T09:17:41.609Z,34.48
2023-05-21T09:20:12.517Z,33.53
2023-05-21T09:22:44.471Z,32.92
2023-05-21T09:25:13.698Z,32.41
2023-05-21T09:27:41.878Z,31.96
2023-05-21T09:30:12.785Z,31.48
2023-05-21T09:32:42.996Z,31.46
2023-05-21T09:35:12.613Z,31.52
2023-05-21T09:37:44.040Z,31.58
2023-05-21T09:40:14.333Z,31.84
2023-05-21T09:42:43.098Z,31.66
2023-05-21T09:45:12.309Z,31.41
2023-05-21T09:47:46.806Z,31.17
2023-05-21T09:50:19.112Z,31.00
2023-05-21T09:52:47.735Z,30.99
2023-05-21T09:55:16.522Z,30.91
2023-05-21T09:57:45.405Z,31.15
2023-05-21T10:00:20.292Z,31.81
2023-05-21T10:02:51.192Z,31.92
2023-05-21T10:05:19.510Z,32.55
2023-05-21T10:07:51.876Z,32.82
2023-05-21T10:10:21.973Z,32.85
2023-05-21T10:13:00.175Z,32.65
2023-05-21T10:15:32.542Z,32.52
2023-05-21T10:18:04.843Z,32.51
2023-05-21T10:20:34.402Z,32.42
2023-05-21T10:23:03.674Z,32.41
2023-05-21T10:25:33.122Z,32.31
2023-05-21T10:28:01.388Z,32.09
2023-05-21T10:30:30.079Z,31.76
2023-05-21T10:32:59.781Z,31.52
2023-05-21T10:35:30.921Z,31.57
2023-05-21T10:38:00.340Z,31.52
2023-05-21T10:40:28.698Z,31.27
2023-05-21T10:43:35.945Z,31.02
2023-05-21T10:46:32.693Z,30.91
2023-05-21T10:49:15.461Z,30.89
2023-05-21T10:51:55.077Z,30.83
2023-05-21T10:54:52.913Z,31.04
2023-05-21T10:57:35.692Z,31.00
2023-05-21T11:00:05.177Z,31.06
2023-05-21T11:02:33.969Z,31.08
2023-05-21T11:05:04.259Z,31.09
2023-05-21T11:08:01.743Z,31.27
2023-05-21T11:10:34.067Z,31.37
2023-05-21T11:13:14.398Z,31.35
2023-05-21T11:16:08.159Z,31.30
2023-05-21T11:19:01.836Z,31.12
2023-05-21T11:21:36.440Z,31.03
2023-05-21T11:24:11.281Z,30.88
2023-05-21T11:27:04.484Z,30.91
2023-05-21T11:29:48.209Z,30.82
2023-05-21T11:32:17.636Z,30.78
2023-05-21T11:34:50.074Z,30.79
2023-05-21T11:37:36.126Z,30.69
2023-05-21T11:40:24.031Z,30.64
2023-05-21T11:42:53.967Z,30.70
2023-05-21T11:45:23.647Z,30.64
2023-05-21T11:47:52.917Z,30.59
2023-05-21T11:50:21.259Z,30.54
2023-05-21T11:52:51.111Z,30.60
2023-05-21T11:55:26.129Z,30.58
2023-05-21T11:57:56.896Z,30.54
2023-05-21T12:00:25.238Z,30.47
2023-05-21T12:02:56.346Z,30.59
2023-05-21T12:05:27.272Z,30.62
2023-05-21T12:07:56.677Z,30.75
2023-05-21T12:10:26.400Z,30.81
2023-05-21T12:12:57.288Z,30.79
2023-05-21T12:15:27.560Z,30.73
2023-05-21T12:17:57.085Z,30.57
2023-05-21T12:20:28.595Z,30.52
2023-05-21T12:22:59.283Z,30.59
2023-05-21T12:25:30.064Z,30.70
2023-05-21T12:27:59.064Z,30.75
2023-05-21T12:30:27.739Z,30.64
2023-05-21T12:32:59.710Z,30.62
2023-05-21T12:35:28.217Z,30.60
2023-05-21T12:37:56.762Z,30.43
2023-05-21T12:40:39.250Z,30.25
2023-05-21T12:43:08.516Z,29.97
2023-05-21T12:45:39.576Z,29.82
2023-05-21T12:48:08.338Z,29.50
2023-05-21T12:50:40.709Z,29.26
2023-05-21T12:53:11.100Z,29.19
2023-05-21T12:55:41.458Z,29.14
2023-05-21T12:58:09.629Z,29.18
2023-05-21T13:00:38.377Z,29.14
2023-05-21T13:03:07.486Z,29.03
2023-05-21T13:05:35.919Z,28.95
2023-05-21T13:08:04.210Z,28.95
2023-05-21T13:10:32.218Z,29.01
2023-05-21T13:13:02.121Z,29.17
2023-05-21T13:15:30.262Z,29.28
2023-05-21T13:18:01.215Z,29.43
2023-05-21T13:20:29.755Z,29.63
2023-05-21T13:22:58.024Z,29.79
2023-05-21T13:25:29.147Z,29.79
2023-05-21T13:27:58.349Z,29.84
2023-05-21T13:30:27.992Z,29.90
2023-05-21T13:32:56.307Z,30.08
2023-05-21T13:35:24.641Z,30.18
2023-05-21T13:37:52.710Z,30.34
2023-05-21T13:40:21.185Z,30.37
2023-05-21T13:42:50.497Z,30.51
2023-05-21T13:45:20.132Z,30.48
2023-05-21T13:47:49.765Z,30.44
2023-05-21T13:50:17.993Z,30.36
2023-05-21T13:52:46.537Z,30.38
2023-05-21T13:55:16.069Z,30.51
2023-05-21T13:57:44.716Z,30.57
2023-05-21T14:00:15.725Z,30.56
2023-05-21T14:02:44.667Z,30.53
2023-05-21T14:05:14.365Z,30.52
2023-05-21T14:07:43.004Z,30.44
2023-05-21T14:10:11.880Z,30.39
2023-05-21T14:12:40.976Z,30.48
2023-05-21T14:15:09.837Z,30.53
2023-05-21T14:17:40.339Z,30.54
2023-05-21T14:20:10.142Z,30.52
2023-05-21T14:22:39.766Z,30.49
2023-05-21T14:25:08.730Z,30.39
2023-05-21T14:27:38.579Z,29.94
2023-05-21T14:30:07.785Z,29.68
2023-05-21T14:32:35.995Z,29.47
2023-05-21T14:35:05.142Z,29.36
2023-05-21T14:37:33.409Z,29.31
2023-05-21T14:40:03.215Z,29.23
2023-05-21T14:42:32.108Z,29.19
2023-05-21T14:45:07.413Z,29.17
2023-05-21T14:47:46.143Z,29.17
2023-05-21T14:50:14.356Z,29.23
2023-05-21T14:52:43.254Z,29.26
2023-05-21T14:55:13.909Z,29.30
2023-05-21T14:57:41.988Z,29.35
2023-05-21T15:00:11.730Z,29.36
2023-05-21T15:02:40.599Z,29.23
2023-05-21T15:05:09.385Z,29.15
2023-05-21T15:07:37.597Z,29.13
2023-05-21T15:10:06.468Z,29.16
2023-05-21T15:12:35.956Z,29.13
2023-05-21T15:15:04.181Z,29.06
2023-05-21T15:17:33.388Z,29.03
2023-05-21T15:20:04.442Z,28.88
2023-05-21T15:22:32.691Z,28.60
2023-05-21T15:25:01.542Z,28.53
2023-05-21T15:27:29.728Z,28.51
2023-05-21T15:29:59.235Z,28.42
2023-05-21T15:32:27.356Z,28.41
2023-05-21T15:34:55.754Z,28.45
2023-05-21T15:37:23.935Z,28.49
2023-05-21T15:39:53.447Z,28.52
2023-05-21T15:42:21.587Z,28.49
2023-05-21T15:44:50.180Z,28.49
2023-05-21T15:47:19.747Z,28.52
2023-05-21T15:49:48.308Z,28.59
2023-05-21T15:52:17.148Z,28.63
2023-05-21T15:54:45.389Z,28.55
2023-05-21T15:57:13.602Z,28.52
2023-05-21T15:59:41.712Z,28.43
2023-05-21T16:02:10.136Z,28.45
2023-05-21T16:04:39.641Z,28.46
2023-05-21T16:07:07.777Z,28.57
2023-05-21T16:09:37.787Z,28.62
2023-05-21T16:12:06.523Z,28.68
2023-05-21T16:14:34.604Z,28.77
2023-05-21T16:17:02.751Z,28.83
2023-05-21T16:19:31.153Z,28.86
2023-05-21T16:22:01.806Z,28.89
2023-05-21T16:24:29.906Z,28.87
2023-05-21T16:26:58.009Z,28.89
2023-05-21T16:29:26.186Z,28.87
2023-05-21T16:31:54.327Z,28.78
2023-05-21T16:34:22.435Z,28.68
2023-05-21T16:36:51.767Z,28.62
2023-05-21T16:39:21.314Z,28.43
2023-05-21T16:41:49.464Z,28.27
2023-05-21T16:44:17.668Z,28.10
2023-05-21T16:46:45.853Z,27.96
2023-05-21T16:49:13.985Z,27.90
2023-05-21T16:51:42.157Z,27.81
2023-05-21T16:54:10.926Z,27.70
2023-05-21T16:56:40.371Z,27.59
2023-05-21T16:59:08.535Z,27.47
2023-05-21T17:01:36.766Z,27.41
2023-05-21T17:04:05.093Z,27.35
2023-05-21T17:06:33.991Z,27.28
2023-05-21T17:09:03.518Z,27.23
2023-05-21T17:11:32.344Z,27.09
2023-05-21T17:14:01.931Z,27.07
2023-05-21T17:16:30.309Z,27.14
2023-05-21T17:18:58.471Z,27.20
2023-05-21T17:21:27.442Z,27.25
2023-05-21T17:23:55.522Z,27.25
2023-05-21T17:26:23.692Z,27.24
2023-05-21T17:28:51.788Z,27.20
2023-05-21T17:31:21.998Z,27.16
2023-05-21T17:33:50.257Z,27.08
2023-05-21T17:36:18.477Z,27.00
2023-05-21T17:38:46.621Z,26.92
2023-05-21T17:41:16.506Z,26.84
2023-05-21T17:43:44.602Z,26.70
2023-05-21T17:46:16.734Z,26.64
2023-05-21T17:48:46.488Z,26.55
2023-05-21T17:51:14.835Z,26.48
2023-05-21T17:53:43.008Z,26.39
2023-05-21T17:56:11.552Z,26.37
2023-05-21T17:58:39.667Z,26.28
2023-05-21T18:01:07.957Z,26.20
2023-05-21T18:03:36.238Z,26.10
2023-05-21T18:06:08.203Z,26.04
2023-05-21T18:08:37.683Z,25.98
2023-05-21T18:11:06.032Z,25.94
2023-05-21T18:13:34.332Z,25.84
2023-05-21T18:16:02.511Z,25.62
2023-05-21T18:18:31.034Z,25.45
2023-05-21T18:20:59.444Z,25.28
2023-05-21T18:23:30.655Z,25.17
2023-05-21T18:25:58.884Z,25.08
2023-05-21T18:28:27.635Z,25.02
2023-05-21T18:30:55.874Z,24.97
2023-05-21T18:33:24.081Z,24.93
2023-05-21T18:35:52.272Z,24.89
2023-05-21T18:38:20.494Z,24.84
2023-05-21T18:40:51.085Z,24.86
2023-05-21T18:43:19.356Z,24.87
2023-05-21T18:45:48.184Z,24.80
2023-05-21T18:48:16.691Z,24.74
2023-05-21T18:50:44.963Z,24.71
2023-05-21T18:53:13.121Z,24.71
2023-05-21T18:55:41.329Z,24.71
2023-05-21T18:58:10.978Z,24.69
2023-05-21T19:00:39.792Z,24.69
2023-05-21T19:03:08.112Z,24.68
2023-05-21T19:05:36.373Z,24.64
2023-05-21T19:08:04.913Z,24.61
2023-05-21T19:10:33.149Z,24.56
2023-05-21T19:13:01.333Z,24.50
2023-05-21T19:15:30.927Z,24.45
2023-05-21T19:18:00.870Z,24.40
2023-05-21T19:20:29.279Z,24.29
2023-05-21T19:22:57.493Z,24.01
2023-05-21T19:25:25.727Z,23.72
2023-05-21T19:27:53.998Z,23.43
2023-05-21T19:30:22.225Z,23.32
2023-05-21T19:32:51.878Z,23.24
2023-05-21T19:35:20.170Z,23.22
2023-05-21T19:37:48.377Z,23.19
2023-05-21T19:40:17.959Z,23.17
2023-05-21T19:42:46.257Z,23.16
2023-05-21T19:45:15.697Z,23.16
2023-05-21T19:47:45.021Z,23.16
2023-05-21T19:50:14.817Z,23.13
2023-05-21T19:52:43.119Z,23.10
2023-05-21T19:55:11.570Z,23.03
2023-05-21T19:57:39.836Z,22.93
2023-05-21T20:00:10.412Z,22.79
2023-05-21T20:02:38.731Z,22.68
2023-05-21T20:05:07.915Z,22.58
2023-05-21T20:07:37.560Z,22.42
2023-05-21T20:10:06.400Z,22.28
2023-05-21T20:12:34.618Z,22.14
2023-05-21T20:15:02.787Z,22.04
2023-05-21T20:17:34.191Z,22.02
2023-05-21T20:20:10.446Z,22.02
2023-05-21T20:22:40.187Z,22.02
2023-05-21T20:25:10.400Z,22.02
2023-05-21T20:27:39.863Z,22.01
2023-05-21T20:30:09.511Z,21.98
2023-05-21T20:32:38.457Z,21.95
2023-05-21T20:35:10.166Z,21.92
2023-05-21T20:37:39.808Z,21.91
2023-05-21T20:40:10.317Z,21.92
2023-05-21T20:42:40.305Z,21.91
2023-05-21T20:45:09.427Z,21.86
2023-05-21T20:47:38.613Z,21.83
2023-05-21T20:50:07.615Z,21.79
2023-05-21T20:52:36.347Z,21.78
2023-05-21T20:55:06.627Z,21.74
2023-05-21T20:57:34.807Z,21.70
2023-05-21T21:00:04.854Z,21.66
2023-05-21T21:02:33.914Z,21.64
2023-05-21T21:05:04.092Z,21.61
2023-05-21T21:07:34.387Z,21.55
2023-05-21T21:10:02.765Z,21.53
2023-05-21T21:12:32.411Z,21.50
2023-05-21T21:15:00.721Z,21.46
2023-05-21T21:17:29.068Z,21.43
2023-05-21T21:19:57.334Z,21.39
2023-05-21T21:22:25.637Z,21.31
2023-05-21T21:24:53.899Z,21.19
2023-05-21T21:27:22.052Z,21.12
2023-05-21T21:29:51.597Z,21.11
2023-05-21T21:32:19.883Z,21.06
2023-05-21T21:34:48.052Z,21.01
2023-05-21T21:37:16.474Z,21.02
2023-05-21T21:39:44.615Z,21.00
2023-05-21T21:42:12.895Z,20.98
2023-05-21T21:44:41.180Z,20.90
2023-05-21T21:47:10.844Z,20.87
2023-05-21T21:49:39.003Z,20.85
2023-05-21T21:52:08.383Z,20.84
2023-05-21T21:54:36.535Z,20.84
2023-05-21T21:57:04.904Z,20.79
2023-05-21T21:59:33.126Z,20.73
2023-05-21T22:02:01.542Z,20.69
2023-05-21T22:04:31.097Z,20.66
2023-05-21T22:06:59.288Z,20.61
2023-05-21T22:09:27.507Z,20.53
2023-05-21T22:11:55.696Z,20.45
2023-05-21T22:14:23.926Z,20.35
2023-05-21T22:16:53.274Z,20.24
2023-05-21T22:19:22.254Z,20.13
2023-05-21T22:21:51.922Z,20.04
2023-05-21T22:24:31.542Z,20.00
2023-05-21T22:27:01.272Z,19.95
2023-05-21T22:29:29.398Z,19.93
2023-05-21T22:31:57.651Z,19.89
2023-05-21T22:34:25.779Z,19.82
2023-05-21T22:36:55.373Z,19.74
2023-05-21T22:39:23.610Z,19.68
2023-05-21T22:41:52.049Z,19.64
2023-05-21T22:44:20.449Z,19.60
2023-05-21T22:46:49.480Z,19.62
2023-05-21T22:49:17.744Z,19.61
2023-05-21T22:51:46.443Z,19.60
2023-05-21T22:54:16.013Z,19.57
2023-05-21T22:56:44.479Z,19.56
2023-05-21T22:59:12.627Z,19.55
2023-05-21T23:01:40.827Z,19.56
2023-05-21T23:04:08.986Z,19.54
2023-05-21T23:06:37.143Z,19.51
2023-05-21T23:09:05.429Z,19.45
2023-05-21T23:11:35.180Z,19.46
2023-05-21T23:14:03.484Z,19.46
2023-05-21T23:16:32.424Z,19.45
2023-05-21T23:19:01.332Z,19.42
2023-05-21T23:21:29.657Z,19.37
2023-05-21T23:23:57.828Z,19.32
2023-05-21T23:26:26.865Z,19.30
2023-05-21T23:28:56.436Z,19.24
2023-05-21T23:31:24.720Z,19.17
2023-05-21T23:33:53.340Z,19.11
2023-05-21T23:36:21.612Z,19.03
2023-05-21T23:38:49.726Z,18.98
2023-05-21T23:41:17.856Z,18.92
2023-05-21T23:43:46.021Z,18.93
2023-05-21T23:46:15.712Z,18.91
2023-05-21T23:48:43.915Z,18.89
2023-05-21T23:51:12.166Z,18.86
2023-05-21T23:53:40.342Z,18.85
2023-05-21T23:56:08.728Z,18.81
2023-05-21T23:58:36.828Z,18.80
